Weather at Mata'aho Airport

Public forecast

Using degrees Celsius for public forecast. Weather courtesy of forecast.io.

Closest aviation weather report (METAR) to Mata'aho Airport

Closest report is Faleolo International Airport, 235.0 nm (435.3 km) ENE.

2024/02/24 16:00 (retrieved 20 minutes ago)

NSFA 241600Z 00000KT 9999 FEW026 26/25 Q1009

Closest aviation forecast (TAF) to Mata'aho Airport

Closest forecast is Pointe Vele Airport, 160.1 nm (296.5 km) WNW.

2024/02/24 12:00 (retrieved 4 hours ago)

TAF NLWF 241100Z 2412/2512 VRB02KT 9999 BKN020 BKN050 TEMPO 2412/2506 4000 SHRA FEW020CB PROB40 TEMPO 2412/2503 2000 +SHRA BKN014 SCT020CB